Parlin, Colorado
Current Conditions -  °F | °C
As of 6:35 AM on Thursday 30 Oct 2014 (Local Time) from KGUC Reporting Station
Clear Clear  
Wind Chill: 19°   Ceiling: Unl
Heat Index: 19°   Visibility: 10mi
Dew Point:   Wind: 3mph
Humidity: 63%   Direction: 60°ENE
Pressure: 30.48"   Gusts: NA
Location:  38.5°N, 106.73°W
Report Text: KGUC 301235Z AUTO 06003KT 10SM CLR M07/M13 A3048 RMK AO1
Loading
Personal Weather Stations






























Interactive Weather Map
Tropical Storm Tracking
New forecast layout! Learn more

10-Day Weather Forecast

Advertisements
Track Severe Weather on mobile